createdAt,value
2023-04-04T04:39:07.024Z,59.04
2023-04-04T04:42:21.554Z,59.10
2023-04-04T04:45:35.877Z,59.18
2023-04-04T04:48:50.498Z,57.84
2023-04-04T04:52:05.246Z,58.18
2023-04-04T04:55:21.220Z,57.33
2023-04-04T04:58:35.568Z,57.65
2023-04-04T05:01:49.959Z,57.14
2023-04-04T05:05:04.520Z,56.84
2023-04-04T05:08:19.154Z,57.94
2023-04-04T05:11:37.619Z,55.75
2023-04-04T05:14:52.362Z,55.37
2023-04-04T05:18:07.270Z,54.16
2023-04-04T05:21:21.940Z,54.15
2023-04-04T05:24:41.883Z,53.60
2023-04-04T05:28:08.589Z,52.80
2023-04-04T05:31:23.637Z,52.60
2023-04-04T05:34:50.929Z,51.84
2023-04-04T05:38:21.028Z,52.52
2023-04-04T05:41:40.445Z,52.51
2023-04-04T05:45:14.242Z,52.70
2023-04-04T05:48:49.712Z,52.68
2023-04-04T05:52:16.005Z,52.13
2023-04-04T05:55:31.769Z,52.21
2023-04-04T05:58:57.020Z,51.05
2023-04-04T06:02:27.192Z,50.10
2023-04-04T06:06:26.955Z,48.82
2023-04-04T06:13:55.957Z,48.58
2023-04-04T06:21:08.995Z,47.80
2023-04-04T06:24:36.268Z,47.95
2023-04-04T06:28:06.863Z,47.22
2023-04-04T06:31:51.284Z,46.54
2023-04-04T06:35:22.239Z,46.79
2023-04-04T06:38:41.792Z,46.99
2023-04-04T06:42:07.737Z,45.90
2023-04-04T06:45:39.295Z,46.55
2023-04-04T06:48:58.693Z,46.59
2023-04-04T06:52:35.053Z,47.10
2023-04-04T06:55:54.817Z,46.36
2023-04-04T06:59:46.426Z,45.92
2023-04-04T07:03:25.953Z,44.98
2023-04-04T07:06:42.532Z,45.78
2023-04-04T07:09:56.865Z,44.93
2023-04-04T07:13:34.895Z,45.61
2023-04-04T07:16:52.381Z,47.51
2023-04-04T07:20:21.390Z,46.53
2023-04-04T07:23:53.223Z,44.24
2023-04-04T07:27:23.875Z,45.01
2023-04-04T07:30:48.412Z,45.01
2023-04-04T07:34:08.845Z,43.82
2023-04-04T07:37:34.057Z,45.93
2023-04-04T07:44:32.116Z,45.84
2023-04-04T07:48:00.371Z,46.41
2023-04-04T07:55:04.045Z,43.39
2023-04-04T07:59:11.752Z,44.48
2023-04-04T08:02:38.709Z,42.55
2023-04-04T08:06:01.713Z,43.01
2023-04-04T08:09:20.127Z,43.33
2023-04-04T08:12:34.496Z,41.68
2023-04-04T08:15:48.886Z,43.00
2023-04-04T08:19:04.208Z,43.50
2023-04-04T08:22:19.967Z,42.80
2023-04-04T08:25:35.335Z,41.32
2023-04-04T08:28:49.629Z,42.44
2023-04-04T08:32:03.959Z,41.67
2023-04-04T08:35:18.737Z,41.29
2023-04-04T08:38:34.494Z,41.38
2023-04-04T08:41:48.780Z,42.05
2023-04-04T08:45:04.406Z,41.60
2023-04-04T08:48:18.635Z,41.60
2023-04-04T08:51:33.189Z,41.08
2023-04-04T08:54:49.182Z,40.75
2023-04-04T08:58:03.412Z,41.28
2023-04-04T09:01:17.588Z,41.15
2023-04-04T09:04:31.756Z,41.42
2023-04-04T09:08:08.855Z,41.59
2023-04-04T09:11:47.940Z,41.12
2023-04-04T09:15:26.208Z,41.21
2023-04-04T09:18:45.952Z,40.58
2023-04-04T09:22:27.084Z,40.78
2023-04-04T09:30:00.048Z,40.77
2023-04-04T09:45:32.549Z,41.06
2023-04-04T09:49:14.942Z,40.55
2023-04-04T09:52:48.759Z,39.64
2023-04-04T09:56:25.352Z,39.45
2023-04-04T10:04:16.428Z,37.76
2023-04-04T10:27:09.857Z,37.54
2023-04-04T10:30:25.460Z,37.71
2023-04-04T10:33:56.269Z,37.36
2023-04-04T10:38:08.881Z,37.40
2023-04-04T10:41:38.765Z,37.14
2023-04-04T10:45:19.338Z,36.17
2023-04-04T10:48:47.412Z,35.66
2023-04-04T10:52:24.862Z,36.41
2023-04-04T10:55:49.332Z,34.73
2023-04-04T10:59:46.386Z,33.62
2023-04-04T11:03:17.963Z,33.33
2023-04-04T11:07:20.124Z,33.17
2023-04-04T11:10:39.556Z,33.56
2023-04-04T11:14:02.924Z,35.45
2023-04-04T11:17:23.390Z,33.96
2023-04-04T11:20:40.691Z,35.59
2023-04-04T11:24:20.038Z,34.30
2023-04-04T11:27:40.346Z,34.40
2023-04-04T11:31:29.405Z,33.74
2023-04-04T11:35:10.895Z,33.49
2023-04-04T11:38:36.634Z,34.12
2023-04-04T11:41:54.260Z,33.92
2023-04-04T11:45:10.897Z,33.96
2023-04-04T11:48:30.078Z,33.47
2023-04-04T11:52:08.167Z,33.22
2023-04-04T11:55:23.294Z,32.86
2023-04-04T11:59:11.624Z,33.37
2023-04-04T12:02:36.921Z,33.18
2023-04-04T12:06:20.924Z,33.55
2023-04-04T12:09:43.087Z,33.42
2023-04-04T12:13:15.243Z,32.44
2023-04-04T12:16:39.587Z,34.10
2023-04-04T12:20:06.264Z,32.88
2023-04-04T12:23:29.599Z,32.33
2023-04-04T12:26:48.690Z,32.76
2023-04-04T12:30:07.580Z,31.54
2023-04-04T12:33:21.952Z,32.65
2023-04-04T12:36:38.488Z,32.46
2023-04-04T12:39:52.835Z,33.07
2023-04-04T12:43:29.450Z,32.12
2023-04-04T12:46:47.830Z,32.58
2023-04-04T12:50:02.269Z,31.93
2023-04-04T12:56:38.971Z,32.08
2023-04-04T12:59:59.854Z,32.19
2023-04-04T13:03:16.520Z,32.96
2023-04-04T13:06:32.318Z,32.91
2023-04-04T13:10:16.672Z,31.40
2023-04-04T13:17:20.562Z,30.87
2023-04-04T13:20:38.292Z,30.80
2023-04-04T13:24:12.465Z,31.10
2023-04-04T13:27:31.684Z,29.92
2023-04-04T13:30:52.044Z,30.16
2023-04-04T13:34:14.574Z,31.03
2023-04-04T13:37:31.408Z,30.75
2023-04-04T13:40:46.055Z,30.77
2023-04-04T13:44:00.303Z,30.15
2023-04-04T13:47:14.574Z,30.89
2023-04-04T13:50:30.526Z,30.75
2023-04-04T13:53:45.519Z,31.40
2023-04-04T13:56:59.869Z,32.00
2023-04-04T14:00:15.411Z,31.80
2023-04-04T14:03:29.729Z,31.33
2023-04-04T14:06:45.530Z,31.31
2023-04-04T14:09:59.863Z,29.21
2023-04-04T14:13:14.476Z,28.79
2023-04-04T14:16:28.779Z,29.19
2023-04-04T14:19:44.266Z,30.21
2023-04-04T14:23:00.093Z,29.67
2023-04-04T14:26:14.480Z,30.10
2023-04-04T14:29:28.983Z,29.61
2023-04-04T14:32:43.327Z,29.99
2023-04-04T14:35:57.590Z,29.56
2023-04-04T14:39:13.328Z,30.22
2023-04-04T14:42:27.727Z,29.56
2023-04-04T14:45:42.251Z,28.99
2023-04-04T14:48:57.117Z,29.63
2023-04-04T14:52:11.481Z,29.61
2023-04-04T14:55:27.275Z,29.84
2023-04-04T14:58:41.717Z,29.72
2023-04-04T15:01:56.133Z,30.79
2023-04-04T15:05:13.352Z,30.73
2023-04-04T15:08:27.735Z,30.20
2023-04-04T15:11:43.396Z,30.74
2023-04-04T15:14:57.656Z,29.86
2023-04-04T15:18:20.652Z,30.49
2023-04-04T15:21:41.563Z,30.56
2023-04-04T15:25:07.183Z,30.33
2023-04-04T15:28:28.362Z,30.98
2023-04-04T15:31:48.090Z,30.60
2023-04-04T15:35:05.682Z,31.43
2023-04-04T15:38:24.856Z,31.50
2023-04-04T15:41:49.095Z,31.35
2023-04-04T15:45:17.074Z,32.33
2023-04-04T15:48:37.228Z,32.38
2023-04-04T15:51:51.512Z,32.93
2023-04-04T15:55:10.995Z,32.69
2023-04-04T15:58:29.336Z,32.38
2023-04-04T16:01:53.078Z,32.48
2023-04-04T16:05:10.053Z,32.25
2023-04-04T16:08:44.880Z,32.54
2023-04-04T16:12:03.536Z,33.05
2023-04-04T16:15:17.778Z,33.17
2023-04-04T16:18:33.635Z,33.54
2023-04-04T16:21:49.618Z,32.97
2023-04-04T16:25:17.130Z,32.90
2023-04-04T16:29:03.701Z,33.71
2023-04-04T16:32:17.953Z,34.00
2023-04-04T16:35:33.649Z,34.21
2023-04-04T16:38:47.953Z,38.29
2023-04-04T16:42:02.607Z,40.17
2023-04-04T16:45:16.842Z,40.46
2023-04-04T16:48:31.216Z,40.82
2023-04-04T16:51:46.944Z,41.37
2023-04-04T16:55:01.639Z,41.80
